PADU Airport (Unalaska) Information

FAA: DUT - ICAO: PADU

PADU Airport Location

State Alaska
County Aleutians West
City Unalaska
PADU Airport is 1 miles north of Unalaska, AK.
Latitude 53-53-56.2000N
Longitude 166-32-42.1000W
Elevation 23ft

PADU Airport METARs

METAR PADU 020056Z 27011G17KT 10SM -RA FEW021 BKN033 OVC044 03/M01 A2948 RMK AO2 RAB50 SLP988 P0000 T00331006
Altimeter 29.48"
Temperature 3.3°C (37.9°F)
Wind 270° at 11KT with gusts to 17KT
Clouds few at 2,100ft broken at 3,300ft overcast at 4,400ft
Visibility 10.0mi
Time observed: 2023-02-02T00:56:00Z

PADU Airport Details

Status Operational
Activation January 1950
Ownership Public
Usage Public
Chart DUTCH HARBOR
ATC on-site No
Beacon schedule sunset-sunrise
Beacon color clear green

PADU Airport Contacts

Owner ALASKA DOT&PF SOUTHCOAST REGION
Owner address PO BOX 112500, JUNEAU, AK 99811-2500
Owner phone 907-465-4512
Manager SHANE NYQUIST, HARBOR MASTER
Manager address PO BOX 19110, PO BOX 19110, THORNE BAY, AK 99919-0110
Manager phone (907) 823-3380

PADU Airport (Unalaska) Radio Frequencies

PADU (Airport) Radio Frequencies

UNICOM N/A
Common traffic advisory frequency (CTAF) 122.6